createdAt,value
2022-10-25T00:01:20.069Z,101177.94
2022-10-25T00:06:12.686Z,101179.66
2022-10-25T00:11:05.935Z,101171.03
2022-10-25T00:15:56.034Z,101173.59
2022-10-25T00:20:46.986Z,101192.69
2022-10-25T00:25:39.806Z,101188.41
2022-10-25T00:30:35.177Z,101180.63
2022-10-25T00:35:33.303Z,101185.81
2022-10-25T00:40:24.220Z,101189.28
2022-10-25T00:45:23.543Z,101191.91
2022-10-25T00:50:30.523Z,101191.06
2022-10-25T00:55:23.583Z,101203.19
2022-10-25T01:00:15.408Z,101200.56
2022-10-25T01:05:06.383Z,101202.31
2022-10-25T01:10:00.402Z,101208.38
2022-10-25T01:14:54.296Z,101204.06
2022-10-25T01:20:10.573Z,101205.81
2022-10-25T01:25:30.290Z,101215.31
2022-10-25T01:30:26.177Z,101217.06
2022-10-25T01:35:29.871Z,101225.72
2022-10-25T01:40:27.745Z,101220.56
2022-10-25T01:45:24.433Z,101228.34
2022-10-25T01:50:18.761Z,101226.63
2022-10-25T01:55:16.078Z,101231.84
2022-10-25T02:00:12.448Z,101235.31
2022-10-25T02:05:15.691Z,101238.78
2022-10-25T02:10:15.589Z,101239.63
2022-10-25T02:15:12.665Z,101250.03
2022-10-25T02:20:05.818Z,101243.97
2022-10-25T02:25:00.923Z,101250.94
2022-10-25T02:29:56.953Z,101251.78
2022-10-25T02:34:51.488Z,101252.66
2022-10-25T02:39:42.452Z,101257.84
2022-10-25T02:44:33.439Z,101252.66
2022-10-25T02:49:30.578Z,101261.31
2022-10-25T02:54:21.476Z,101257.03
2022-10-25T02:59:15.269Z,101261.34
2022-10-25T03:04:06.174Z,101269.16
2022-10-25T03:08:59.470Z,101283.00
2022-10-25T03:13:49.953Z,101285.59
2022-10-25T03:18:43.170Z,101282.13
2022-10-25T03:23:34.066Z,101292.53
2022-10-25T03:28:28.117Z,101299.47
2022-10-25T03:33:21.748Z,101296.84
2022-10-25T03:38:12.793Z,101303.78
2022-10-25T03:43:03.040Z,101293.41
2022-10-25T03:47:55.973Z,101313.31
2022-10-25T03:52:46.516Z,101313.31
2022-10-25T03:57:37.479Z,101316.78
2022-10-25T04:02:28.194Z,101323.69
2022-10-25T04:07:22.148Z,101313.31
2022-10-25T04:12:16.545Z,101317.66
2022-10-25T04:17:09.874Z,101321.09
2022-10-25T04:22:02.399Z,101332.34
2022-10-25T04:26:57.155Z,101332.38
2022-10-25T04:31:47.390Z,101341.91
2022-10-25T04:36:39.342Z,101342.75
2022-10-25T04:41:29.701Z,101356.63
2022-10-25T04:46:26.199Z,101350.53
2022-10-25T04:51:17.397Z,101370.44
2022-10-25T04:56:09.853Z,101366.16
2022-10-25T05:01:04.838Z,101362.66
2022-10-25T05:05:57.933Z,101368.72
2022-10-25T05:10:53.388Z,101384.31
2022-10-25T05:15:43.290Z,101371.34
2022-10-25T05:20:33.735Z,101394.72
2022-10-25T05:25:29.245Z,101392.97
2022-10-25T05:30:22.261Z,101399.03
2022-10-25T05:35:13.081Z,101406.81
2022-10-25T05:40:04.551Z,101406.81
2022-10-25T05:44:57.796Z,101405.94
2022-10-25T05:49:48.606Z,101417.22
2022-10-25T05:54:38.426Z,101416.34
2022-10-25T05:59:28.185Z,101413.75
2022-10-25T06:04:20.736Z,101424.13
2022-10-25T06:09:11.523Z,101431.03
2022-10-25T06:14:01.381Z,101440.56
2022-10-25T06:18:52.552Z,101439.69
2022-10-25T06:23:46.508Z,101431.03
2022-10-25T06:28:47.303Z,101449.22
2022-10-25T06:33:37.992Z,101467.41
2022-10-25T06:38:28.464Z,101455.28
2022-10-25T06:43:20.664Z,101457.03
2022-10-25T06:48:11.208Z,101474.34
2022-10-25T06:53:02.987Z,101472.63
2022-10-25T06:57:53.802Z,101480.41
2022-10-25T07:02:47.189Z,101479.53
2022-10-25T07:07:37.561Z,101492.50
2022-10-25T07:12:28.117Z,101504.63
2022-10-25T07:17:18.863Z,101508.94
2022-10-25T07:22:12.279Z,101510.66
2022-10-25T07:27:02.652Z,101513.28
2022-10-25T07:31:53.016Z,101515.06
2022-10-25T07:36:43.526Z,101517.66
2022-10-25T07:41:36.451Z,101529.78
2022-10-25T07:46:27.820Z,101542.78
2022-10-25T07:51:20.611Z,101541.06
2022-10-25T07:56:17.610Z,101548.84
2022-10-25T08:01:14.282Z,101535.00
2022-10-25T08:06:08.311Z,101540.22
2022-10-25T08:10:59.724Z,101554.06
2022-10-25T08:15:53.834Z,101545.41
2022-10-25T08:21:03.840Z,101554.09
2022-10-25T08:25:55.200Z,101561.94
2022-10-25T08:30:49.106Z,101562.78
2022-10-25T08:35:39.929Z,101560.22
2022-10-25T08:40:43.338Z,101563.66
2022-10-25T08:45:40.399Z,101568.84
2022-10-25T08:50:41.261Z,101580.09
2022-10-25T08:55:41.731Z,101575.78
2022-10-25T09:00:42.833Z,101587.91
2022-10-25T09:05:41.644Z,101587.06
2022-10-25T09:10:49.021Z,101594.94
2022-10-25T09:15:52.428Z,101604.47
2022-10-25T09:20:51.418Z,101604.50
2022-10-25T09:25:55.648Z,101614.06
2022-10-25T09:30:47.603Z,101611.44
2022-10-25T09:35:46.378Z,101614.06
2022-10-25T09:40:49.500Z,101614.03
2022-10-25T09:45:47.356Z,101612.22
2022-10-25T09:50:47.559Z,101628.66
2022-10-25T09:55:44.795Z,101622.53
2022-10-25T10:00:43.012Z,101624.28
2022-10-25T10:05:35.347Z,101639.06
2022-10-25T10:10:34.242Z,101640.81
2022-10-25T10:15:29.846Z,101642.50
2022-10-25T10:20:26.236Z,101645.94
2022-10-25T10:25:21.452Z,101655.44
2022-10-25T10:30:22.446Z,101651.88
2022-10-25T10:35:34.196Z,101650.81
2022-10-25T10:40:27.749Z,101643.69
2022-10-25T10:45:21.731Z,101645.19
2022-10-25T10:50:28.942Z,101649.38
2022-10-25T10:55:30.452Z,101660.72
2022-10-25T11:00:26.693Z,101657.31
2022-10-25T11:05:27.576Z,101668.53
2022-10-25T11:10:32.984Z,101662.38
2022-10-25T11:15:23.619Z,101674.69
2022-10-25T11:20:30.550Z,101664.41
2022-10-25T11:25:41.377Z,101651.50
2022-10-25T11:30:40.140Z,101667.19
2022-10-25T11:35:54.356Z,101673.34
2022-10-25T11:40:57.321Z,101670.78
2022-10-25T11:45:49.947Z,101664.69
2022-10-25T11:50:51.919Z,101655.13
2022-10-25T11:55:51.645Z,101661.16
2022-10-25T12:00:53.259Z,101655.84
2022-10-25T12:05:53.728Z,101659.13
2022-10-25T12:10:53.137Z,101643.28
2022-10-25T12:15:46.789Z,101644.75
2022-10-25T12:20:39.993Z,101648.22
2022-10-25T12:25:34.964Z,101643.75
2022-10-25T12:30:30.472Z,101648.88
2022-10-25T12:35:25.491Z,101645.25
2022-10-25T12:40:19.568Z,101660.75
2022-10-25T12:45:35.868Z,101654.69
2022-10-25T12:50:48.311Z,101656.31
2022-10-25T12:55:52.832Z,101646.53
2022-10-25T13:01:03.035Z,101641.22
2022-10-25T13:06:27.773Z,101642.13
2022-10-25T13:11:18.244Z,101642.16
2022-10-25T13:16:13.261Z,101640.41
2022-10-25T13:21:06.558Z,101641.25
2022-10-25T13:26:10.819Z,101635.16
2022-10-25T13:31:30.932Z,101638.66
2022-10-25T13:36:51.738Z,101639.50
2022-10-25T13:41:47.479Z,101645.78
2022-10-25T13:46:41.562Z,101638.94
2022-10-25T13:51:36.142Z,101632.72
2022-10-25T13:56:39.514Z,101633.50
2022-10-25T14:01:55.954Z,101628.19
2022-10-25T14:06:49.543Z,101633.41
2022-10-25T14:11:47.224Z,101627.38
2022-10-25T14:16:47.422Z,101623.97
2022-10-25T14:21:38.525Z,101610.19
2022-10-25T14:26:33.430Z,101613.56
2022-10-25T14:31:25.317Z,101612.59
2022-10-25T14:36:29.454Z,101605.75
2022-10-25T14:41:25.699Z,101604.88
2022-10-25T14:46:23.270Z,101596.16
2022-10-25T14:51:20.193Z,101600.53
2022-10-25T14:56:11.433Z,101589.94
2022-10-25T15:01:09.178Z,101589.19
2022-10-25T15:06:03.719Z,101575.41
2022-10-25T15:10:56.604Z,101599.81
2022-10-25T15:15:51.640Z,101602.56
2022-10-25T15:20:42.586Z,101594.91
2022-10-25T15:25:43.931Z,101584.56
2022-10-25T15:30:45.828Z,101582.88
2022-10-25T15:35:49.345Z,101576.00
2022-10-25T15:40:41.711Z,101576.06
2022-10-25T15:45:32.402Z,101578.81
2022-10-25T15:50:24.214Z,101583.19
2022-10-25T16:00:31.358Z,101575.50
2022-10-25T16:05:24.112Z,101572.97
2022-10-25T16:10:14.493Z,101582.63
2022-10-25T16:15:16.844Z,101578.38
2022-10-25T16:20:23.485Z,101576.69
2022-10-25T16:25:15.661Z,101578.50
2022-10-25T16:30:06.329Z,101582.03
2022-10-25T16:34:56.977Z,101555.25
2022-10-25T16:39:50.236Z,101566.56
2022-10-25T16:44:40.580Z,101580.53
2022-10-25T16:49:32.812Z,101571.06
2022-10-25T16:54:24.359Z,101571.09
2022-10-25T16:59:17.813Z,101567.66
2022-10-25T17:04:08.883Z,101561.63
2022-10-25T17:08:59.482Z,101563.44
2022-10-25T17:13:49.958Z,101555.63
2022-10-25T17:18:43.487Z,101550.47
2022-10-25T17:23:34.319Z,101551.31
2022-10-25T17:28:24.738Z,101554.81
2022-10-25T17:33:14.996Z,101554.88
2022-10-25T17:38:10.277Z,101556.63
2022-10-25T17:43:00.468Z,101562.72
2022-10-25T17:47:51.189Z,101569.69
2022-10-25T17:52:42.508Z,101564.47
2022-10-25T17:57:37.406Z,101561.06
2022-10-25T18:02:27.403Z,101544.59
2022-10-25T18:07:17.606Z,101555.00
2022-10-25T18:12:10.159Z,101562.84
2022-10-25T18:17:03.104Z,101565.41
2022-10-25T18:21:52.940Z,101551.53
2022-10-25T18:26:43.139Z,101556.75
2022-10-25T18:31:33.545Z,101556.78
2022-10-25T18:36:27.494Z,101550.72
2022-10-25T18:41:19.648Z,101547.28
2022-10-25T18:46:09.765Z,101553.31
2022-10-25T18:51:04.913Z,101550.75
2022-10-25T18:55:57.212Z,101562.88
2022-10-25T19:00:47.232Z,101555.94
2022-10-25T19:05:40.019Z,101542.94
2022-10-25T19:10:31.669Z,101538.56
2022-10-25T19:15:24.313Z,101533.38
2022-10-25T19:20:15.138Z,101540.31
2022-10-25T19:25:06.057Z,101530.78
2022-10-25T19:29:57.784Z,101531.66
2022-10-25T19:39:42.580Z,101516.03
2022-10-25T19:44:33.141Z,101521.22
2022-10-25T19:49:23.568Z,101521.25
2022-10-25T19:54:17.032Z,101520.34
2022-10-25T19:59:08.047Z,101516.91
2022-10-25T20:04:00.751Z,101509.09
2022-10-25T20:08:51.782Z,101509.06
2022-10-25T20:13:45.454Z,101501.28
2022-10-25T20:18:38.509Z,101503.00
2022-10-25T20:23:29.318Z,101490.88
2022-10-25T20:28:20.553Z,101498.63
2022-10-25T20:33:14.432Z,101503.84
2022-10-25T20:38:05.163Z,101486.53
2022-10-25T20:42:55.872Z,101492.56
2022-10-25T20:47:50.933Z,101481.31
2022-10-25T20:52:58.520Z,101485.63
2022-10-25T20:57:55.694Z,101492.53
2022-10-25T21:02:46.368Z,101495.13
2022-10-25T21:07:36.864Z,101492.53
2022-10-25T21:12:29.966Z,101489.91
2022-10-25T21:17:20.815Z,101487.31
2022-10-25T21:22:11.682Z,101486.44
2022-10-25T21:27:02.407Z,101491.59
2022-10-25T21:31:55.825Z,101484.66
2022-10-25T21:36:45.679Z,101474.22
2022-10-25T21:41:35.949Z,101478.56
2022-10-25T21:46:27.038Z,101474.19
2022-10-25T21:51:20.641Z,101477.66
2022-10-25T21:56:13.472Z,101468.97
2022-10-25T22:01:04.393Z,101473.31
2022-10-25T22:05:54.500Z,101467.19
2022-10-25T22:10:47.693Z,101479.31
2022-10-25T22:15:38.274Z,101473.28
2022-10-25T22:20:28.849Z,101462.00
2022-10-25T22:25:28.661Z,101473.22
2022-10-25T22:30:22.002Z,101467.19
2022-10-25T22:35:12.681Z,101456.78
2022-10-25T22:40:03.624Z,101475.81
2022-10-25T22:44:54.059Z,101459.34
2022-10-25T22:49:48.082Z,101451.56
2022-10-25T22:54:38.727Z,101448.97
2022-10-25T22:59:31.636Z,101427.31
2022-10-25T23:04:23.032Z,101442.94
2022-10-25T23:09:16.226Z,101443.78
2022-10-25T23:14:13.275Z,101448.13
2022-10-25T23:19:08.665Z,101448.13
2022-10-25T23:24:01.432Z,101438.59
2022-10-25T23:28:54.814Z,101434.28
2022-10-25T23:33:47.147Z,101428.22
2022-10-25T23:38:38.188Z,101424.78
2022-10-25T23:43:28.070Z,101422.19
2022-10-25T23:48:20.429Z,101417.00
2022-10-25T23:53:10.125Z,101382.34
2022-10-25T23:58:00.805Z,101397.94
